createdAt,value
2019-01-04T00:00:07.175Z,11.37
2019-01-04T00:03:03.814Z,12.17
2019-01-04T00:06:00.503Z,10.85
2019-01-04T00:08:57.371Z,14.10
2019-01-04T00:11:55.009Z,10.43
2019-01-04T00:14:51.424Z,7.90
2019-01-04T00:17:47.259Z,11.40
2019-01-04T00:20:44.971Z,9.75
2019-01-04T00:23:41.555Z,13.60
2019-01-04T00:26:37.068Z,12.53
2019-01-04T00:29:34.037Z,11.83
2019-01-04T00:32:30.223Z,11.00
2019-01-04T00:35:26.736Z,11.93
2019-01-04T00:38:21.692Z,13.60
2019-01-04T00:41:18.447Z,9.23
2019-01-04T00:44:15.077Z,10.80
2019-01-04T00:47:11.717Z,10.70
2019-01-04T00:50:08.354Z,11.40
2019-01-04T00:53:06.154Z,14.30
2019-01-04T00:56:29.256Z,21.00
2019-01-04T00:59:49.979Z,13.33
2019-01-04T01:03:09.468Z,10.50
2019-01-04T01:06:44.686Z,15.53
2019-01-04T01:10:09.739Z,11.60
2019-01-04T01:13:50.395Z,12.28
2019-01-04T01:17:19.501Z,13.53
2019-01-04T01:20:41.511Z,13.65
2019-01-04T01:24:18.713Z,19.43
2019-01-04T01:27:39.996Z,12.63
2019-01-04T01:31:05.998Z,14.98
2019-01-04T01:34:26.503Z,11.40
2019-01-04T01:38:02.908Z,10.03
2019-01-04T01:41:35.628Z,15.00
2019-01-04T01:44:56.465Z,11.23
2019-01-04T01:48:19.278Z,16.23
2019-01-04T01:51:47.462Z,12.03
2019-01-04T01:54:43.969Z,11.93
2019-01-04T01:57:41.952Z,13.00
2019-01-04T02:00:38.637Z,16.43
2019-01-04T02:03:35.287Z,13.47
2019-01-04T02:06:31.825Z,15.10
2019-01-04T02:09:27.339Z,15.83
2019-01-04T02:12:24.999Z,13.90
2019-01-04T02:15:21.833Z,12.83
2019-01-04T02:18:18.459Z,15.20
2019-01-04T02:21:14.077Z,13.30
2019-01-04T02:24:10.849Z,16.03
2019-01-04T02:27:07.703Z,13.93
2019-01-04T02:30:03.323Z,12.85
2019-01-04T02:33:00.924Z,12.10
2019-01-04T02:35:56.591Z,13.50
2019-01-04T02:38:53.552Z,15.83
2019-01-04T02:41:49.376Z,13.05
2019-01-04T02:44:45.311Z,14.53
2019-01-04T02:47:41.069Z,14.23
2019-01-04T02:50:37.664Z,14.13
2019-01-04T02:53:35.298Z,14.63
2019-01-04T02:56:30.782Z,12.40
2019-01-04T02:59:27.466Z,16.90
2019-01-04T03:02:22.981Z,16.10
2019-01-04T03:05:19.915Z,14.93
2019-01-04T03:08:17.506Z,16.75
2019-01-04T03:11:13.259Z,17.10
2019-01-04T03:14:12.109Z,18.50
2019-01-04T03:17:08.741Z,17.33
2019-01-04T03:20:05.389Z,12.27
2019-01-04T03:23:00.907Z,12.97
2019-01-04T03:25:57.648Z,16.77
2019-01-04T03:28:54.389Z,15.77
2019-01-04T03:31:49.964Z,17.60
2019-01-04T03:34:46.799Z,21.37
2019-01-04T03:37:42.798Z,14.80
2019-01-04T03:40:39.465Z,20.10
2019-01-04T03:43:36.210Z,18.93
2019-01-04T03:46:33.865Z,20.23
2019-01-04T03:49:29.765Z,18.17
2019-01-04T03:52:26.222Z,19.70
2019-01-04T03:55:22.258Z,14.80
2019-01-04T03:58:19.581Z,16.00
2019-01-04T04:01:16.138Z,22.77
2019-01-04T04:04:12.719Z,19.27
2019-01-04T04:07:09.298Z,16.57
2019-01-04T04:10:05.045Z,19.90
2019-01-04T04:13:02.620Z,20.70
2019-01-04T04:15:59.097Z,18.30
2019-01-04T04:18:55.763Z,23.07
2019-01-04T04:21:52.400Z,17.67
2019-01-04T04:24:49.384Z,18.70
2019-01-04T04:27:45.410Z,16.67
2019-01-04T04:30:41.028Z,19.97
2019-01-04T04:33:37.803Z,20.97
2019-01-04T04:36:33.358Z,20.30
2019-01-04T04:39:30.131Z,18.70
2019-01-04T04:42:25.647Z,17.37
2019-01-04T04:45:23.418Z,17.73
2019-01-04T04:48:19.961Z,16.80
2019-01-04T04:51:14.683Z,19.43
2019-01-04T04:54:12.501Z,17.93
2019-01-04T04:57:08.037Z,18.07
2019-01-04T05:00:04.537Z,16.83
2019-01-04T05:03:01.411Z,19.53
2019-01-04T05:05:59.486Z,17.43
2019-01-04T05:08:54.992Z,19.37
2019-01-04T05:11:51.312Z,17.87
2019-01-04T05:14:51.034Z,19.48
2019-01-04T05:17:46.814Z,19.70
2019-01-04T05:20:44.710Z,20.97
2019-01-04T05:23:41.388Z,15.90
2019-01-04T05:26:39.218Z,15.53
2019-01-04T05:29:34.868Z,17.57
2019-01-04T05:32:31.638Z,19.50
2019-01-04T05:35:28.144Z,16.93
2019-01-04T05:38:24.899Z,18.00
2019-01-04T05:41:21.491Z,16.73
2019-01-04T05:44:18.041Z,16.65
2019-01-04T05:47:14.679Z,20.00
2019-01-04T05:50:10.477Z,15.27
2019-01-04T05:53:06.985Z,16.00
2019-01-04T05:56:09.464Z,14.47
2019-01-04T05:59:05.224Z,17.10
2019-01-04T06:02:01.913Z,19.67
2019-01-04T06:04:57.379Z,17.53
2019-01-04T06:07:54.015Z,14.90
2019-01-04T06:10:49.360Z,20.90
2019-01-04T06:13:47.198Z,19.27
2019-01-04T06:16:44.966Z,17.13
2019-01-04T06:19:40.538Z,20.13
2019-01-04T06:22:38.213Z,19.20
2019-01-04T06:25:34.782Z,17.57
2019-01-04T06:28:31.644Z,16.43
2019-01-04T06:31:27.002Z,17.30
2019-01-04T06:34:23.788Z,15.83
2019-01-04T06:37:20.432Z,18.00
2019-01-04T06:40:16.626Z,14.77
2019-01-04T06:43:12.396Z,16.73
2019-01-04T06:46:10.388Z,21.43
2019-01-04T06:49:06.869Z,15.63
2019-01-04T06:52:02.540Z,13.30
2019-01-04T06:55:52.947Z,15.50
2019-01-04T06:58:48.981Z,18.30
2019-01-04T07:01:45.888Z,17.12
2019-01-04T07:04:41.663Z,21.97
2019-01-04T07:07:38.316Z,16.50
2019-01-04T07:10:33.992Z,15.50
2019-01-04T07:13:31.892Z,18.87
2019-01-04T07:16:28.493Z,15.70
2019-01-04T07:19:24.173Z,17.90
2019-01-04T07:22:20.811Z,16.70
2019-01-04T07:25:16.790Z,15.67
2019-01-04T07:28:13.636Z,20.83
2019-01-04T07:31:20.531Z,15.37
2019-01-04T07:34:18.197Z,18.87
2019-01-04T07:37:14.594Z,18.10
2019-01-04T07:40:10.189Z,18.47
2019-01-04T07:43:06.551Z,17.73
2019-01-04T07:46:01.705Z,17.33
2019-01-04T07:48:58.096Z,22.30
2019-01-04T07:51:55.033Z,19.83
2019-01-04T07:54:49.901Z,20.27
2019-01-04T07:57:47.746Z,23.87
2019-01-04T08:00:43.378Z,24.83
2019-01-04T08:03:49.038Z,22.40
2019-01-04T08:06:44.378Z,19.67
2019-01-04T08:09:40.988Z,22.07
2019-01-04T08:12:36.682Z,18.97
2019-01-04T08:15:34.715Z,22.23
2019-01-04T08:18:32.374Z,21.20
2019-01-04T08:21:27.947Z,19.23
2019-01-04T08:24:25.593Z,18.90
2019-01-04T08:27:21.433Z,21.43
2019-01-04T08:30:17.268Z,21.43
2019-01-04T08:33:13.496Z,21.70
2019-01-04T08:36:09.999Z,20.07
2019-01-04T08:39:06.643Z,20.43
2019-01-04T08:42:04.392Z,25.00
2019-01-04T08:45:00.976Z,27.27
2019-01-04T08:47:57.618Z,21.23
2019-01-04T08:50:54.483Z,19.67
2019-01-04T08:54:10.538Z,24.00
2019-01-04T08:57:07.463Z,22.60
2019-01-04T09:00:04.303Z,23.20
2019-01-04T09:03:00.780Z,26.00
2019-01-04T09:05:57.434Z,21.67
2019-01-04T09:08:53.795Z,18.43
2019-01-04T09:11:49.957Z,20.97
2019-01-04T09:14:45.770Z,19.77
2019-01-04T09:17:42.560Z,21.80
2019-01-04T09:20:38.126Z,26.23
2019-01-04T09:23:35.026Z,23.23
2019-01-04T09:26:31.664Z,23.30
2019-01-04T09:29:29.426Z,24.60
2019-01-04T09:32:27.057Z,24.33
2019-01-04T09:35:22.873Z,23.13
2019-01-04T09:38:19.047Z,19.70
2019-01-04T09:41:56.576Z,26.70
2019-01-04T09:44:53.407Z,21.73
2019-01-04T09:47:48.835Z,24.47
2019-01-04T09:50:45.612Z,25.77
2019-01-04T09:53:42.429Z,22.40
2019-01-04T09:56:37.997Z,26.50
2019-01-04T09:59:35.901Z,24.87
2019-01-04T10:02:33.895Z,21.93
2019-01-04T10:05:30.593Z,23.70
2019-01-04T10:08:25.308Z,21.37
2019-01-04T10:11:21.273Z,22.00
2019-01-04T10:14:17.131Z,22.00
2019-01-04T10:17:13.773Z,21.73
2019-01-04T10:20:11.352Z,21.67
2019-01-04T10:23:07.578Z,25.00
2019-01-04T10:26:03.103Z,21.90
2019-01-04T10:28:59.331Z,26.55
2019-01-04T10:31:57.234Z,20.27
2019-01-04T10:34:53.175Z,21.83
2019-01-04T10:37:49.721Z,23.37
2019-01-04T10:40:46.196Z,20.07
2019-01-04T10:43:42.737Z,20.77
2019-01-04T10:46:38.408Z,21.70
2019-01-04T10:49:35.997Z,23.37
2019-01-04T10:52:31.546Z,23.03
2019-01-04T10:55:27.969Z,20.82
2019-01-04T10:58:23.188Z,21.03
2019-01-04T11:01:21.080Z,17.97
2019-01-04T11:04:17.917Z,18.57
2019-01-04T11:07:13.857Z,20.63
2019-01-04T11:10:10.546Z,19.00
2019-01-04T11:13:07.491Z,19.43
2019-01-04T11:16:04.291Z,16.63
2019-01-04T11:18:59.749Z,19.27
2019-01-04T11:21:56.980Z,17.73
2019-01-04T11:25:20.697Z,17.57
2019-01-04T11:28:37.677Z,18.63
2019-01-04T11:32:08.472Z,19.35
2019-01-04T11:35:32.623Z,19.73
2019-01-04T11:38:56.133Z,16.13
2019-01-04T11:42:22.178Z,22.17
2019-01-04T11:45:56.076Z,17.97
2019-01-04T11:49:16.577Z,22.60
2019-01-04T11:52:20.361Z,20.57
2019-01-04T11:55:17.143Z,17.13
2019-01-04T11:58:13.720Z,19.33
2019-01-04T12:01:10.521Z,19.53
2019-01-04T12:04:15.630Z,17.77
2019-01-04T12:07:11.323Z,21.40
2019-01-04T12:10:07.925Z,20.73
2019-01-04T12:13:03.834Z,18.37
2019-01-04T12:16:00.562Z,23.03
2019-01-04T12:18:55.180Z,26.37
2019-01-04T12:21:52.614Z,20.57
2019-01-04T12:24:49.284Z,19.43
2019-01-04T12:27:44.939Z,19.77
2019-01-04T12:30:42.350Z,15.93
2019-01-04T12:33:39.213Z,21.90
2019-01-04T12:36:36.696Z,21.20
2019-01-04T12:39:32.369Z,17.50
2019-01-04T12:42:29.328Z,15.87
2019-01-04T12:45:22.482Z,19.60
2019-01-04T12:48:19.242Z,18.10
2019-01-04T12:51:16.961Z,21.47
2019-01-04T12:54:12.708Z,18.85
2019-01-04T12:57:09.605Z,19.60
2019-01-04T13:00:05.432Z,15.70
2019-01-04T13:03:02.024Z,17.77
2019-01-04T13:05:57.921Z,16.33
2019-01-04T13:08:54.564Z,19.17
2019-01-04T13:11:51.173Z,17.63
2019-01-04T13:14:47.789Z,20.25
2019-01-04T13:17:44.537Z,19.83
2019-01-04T13:20:39.632Z,16.13
2019-01-04T13:23:36.258Z,18.57
2019-01-04T13:26:31.678Z,18.98
2019-01-04T13:29:28.402Z,16.80
2019-01-04T13:32:25.139Z,16.87
2019-01-04T13:35:22.799Z,15.60
2019-01-04T13:38:20.103Z,15.83
2019-01-04T13:41:16.210Z,16.73
2019-01-04T13:44:13.115Z,14.40
2019-01-04T13:47:08.792Z,16.43
2019-01-04T13:50:04.649Z,15.30
2019-01-04T13:53:00.335Z,15.30
2019-01-04T13:55:57.546Z,16.20
2019-01-04T13:58:54.362Z,15.03
2019-01-04T14:01:50.991Z,16.30
2019-01-04T14:04:47.911Z,16.17
2019-01-04T14:07:44.659Z,14.13
2019-01-04T14:10:40.499Z,13.87
2019-01-04T14:13:37.771Z,15.30
2019-01-04T14:16:33.622Z,15.33
2019-01-04T14:19:29.450Z,13.23
2019-01-04T14:22:27.000Z,14.18
2019-01-04T14:25:22.469Z,12.43
2019-01-04T14:28:19.064Z,15.90
2019-01-04T14:31:14.688Z,13.40
2019-01-04T14:34:12.187Z,13.40
2019-01-04T14:37:10.099Z,15.20
2019-01-04T14:40:05.564Z,14.30
2019-01-04T14:43:02.718Z,11.60
2019-01-04T14:45:58.371Z,15.07
2019-01-04T14:48:54.957Z,12.53
2019-01-04T14:51:50.575Z,13.60
2019-01-04T14:54:47.404Z,11.43
2019-01-04T14:57:43.236Z,12.40
2019-01-04T15:00:40.810Z,14.60
2019-01-04T15:03:36.509Z,12.53
2019-01-04T15:06:32.664Z,13.53
2019-01-04T15:09:29.458Z,18.60
2019-01-04T15:12:25.251Z,15.63
2019-01-04T15:15:21.765Z,14.60
2019-01-04T15:18:17.904Z,16.73
2019-01-04T15:21:14.746Z,16.17
2019-01-04T15:24:11.328Z,20.20
2019-01-04T15:27:07.191Z,14.70
2019-01-04T15:30:03.364Z,15.90
2019-01-04T15:32:59.127Z,13.30
2019-01-04T15:35:55.970Z,13.40
2019-01-04T15:38:52.854Z,18.67
2019-01-04T15:41:50.538Z,15.43
2019-01-04T15:44:47.152Z,19.20
2019-01-04T15:47:43.679Z,16.60
2019-01-04T15:50:40.309Z,13.47
2019-01-04T15:53:37.051Z,14.40
2019-01-04T15:56:33.678Z,16.17
2019-01-04T15:59:29.280Z,13.53
2019-01-04T16:02:28.412Z,13.20
2019-01-04T16:05:25.275Z,19.43
2019-01-04T16:08:21.796Z,15.30
2019-01-04T16:11:17.223Z,11.67
2019-01-04T16:14:15.141Z,16.62
2019-01-04T16:17:12.264Z,14.83
2019-01-04T16:20:06.942Z,19.87
2019-01-04T16:23:03.372Z,15.00
2019-01-04T16:25:59.254Z,13.68
2019-01-04T16:28:56.064Z,14.70
2019-01-04T16:31:52.068Z,15.57
2019-01-04T16:34:51.277Z,15.97
2019-01-04T16:37:46.695Z,14.80
2019-01-04T16:40:45.045Z,15.13
2019-01-04T16:43:41.318Z,13.77
2019-01-04T16:46:37.093Z,17.95
2019-01-04T16:49:33.537Z,12.57
2019-01-04T16:52:29.465Z,12.03
2019-01-04T16:55:27.390Z,11.33
2019-01-04T16:58:23.213Z,12.13
2019-01-04T17:01:19.984Z,18.27
2019-01-04T17:04:16.620Z,13.05
2019-01-04T17:07:13.262Z,12.30
2019-01-04T17:10:09.860Z,12.75
2019-01-04T17:13:05.409Z,14.40
2019-01-04T17:16:03.031Z,14.70
2019-01-04T17:18:58.742Z,12.93
2019-01-04T17:21:55.980Z,13.77
2019-01-04T17:24:51.678Z,13.60
2019-01-04T17:27:48.238Z,12.63
2019-01-04T17:30:44.965Z,13.80
2019-01-04T17:33:39.660Z,14.07
2019-01-04T17:36:37.592Z,13.00
2019-01-04T17:39:33.561Z,14.60
2019-01-04T17:42:31.090Z,13.48
2019-01-04T17:45:27.015Z,15.60
2019-01-04T17:48:25.502Z,16.10
2019-01-04T17:51:21.290Z,15.20
2019-01-04T17:54:17.921Z,13.97
2019-01-04T17:57:14.679Z,15.00
2019-01-04T18:00:10.762Z,16.52
2019-01-04T18:03:07.762Z,11.60
2019-01-04T18:06:04.394Z,15.03
2019-01-04T18:09:01.253Z,14.60
2019-01-04T18:11:58.018Z,13.37
2019-01-04T18:14:54.587Z,14.60
2019-01-04T18:17:51.258Z,18.30
2019-01-04T18:20:48.555Z,14.60
2019-01-04T18:23:45.963Z,13.00
2019-01-04T18:26:42.626Z,18.17
2019-01-04T18:29:39.695Z,18.23
2019-01-04T18:32:34.933Z,14.33
2019-01-04T18:35:32.748Z,18.73
2019-01-04T18:38:29.546Z,14.30
2019-01-04T18:41:25.063Z,16.97
2019-01-04T18:44:22.780Z,17.10
2019-01-04T18:47:19.426Z,18.20
2019-01-04T18:50:16.353Z,15.43
2019-01-04T18:53:13.228Z,14.55
2019-01-04T18:56:11.028Z,14.33
2019-01-04T18:59:07.835Z,14.10
2019-01-04T19:02:03.493Z,16.87
2019-01-04T19:05:00.027Z,16.50
2019-01-04T19:07:56.848Z,13.50
2019-01-04T19:10:52.769Z,18.90
2019-01-04T19:13:49.561Z,18.00
2019-01-04T19:16:45.234Z,17.20
2019-01-04T19:19:41.262Z,15.53
2019-01-04T19:22:37.962Z,17.60
2019-01-04T19:25:35.736Z,16.65
2019-01-04T19:28:32.393Z,16.70
2019-01-04T19:31:32.983Z,17.67
2019-01-04T19:34:31.830Z,18.63
2019-01-04T19:37:28.889Z,17.30
2019-01-04T19:40:25.629Z,18.33
2019-01-04T19:43:21.257Z,16.93
2019-01-04T19:46:17.723Z,20.53
2019-01-04T19:49:14.445Z,21.27
2019-01-04T19:52:10.128Z,20.23
2019-01-04T19:55:07.108Z,18.70
2019-01-04T19:58:02.932Z,18.30
2019-01-04T20:00:59.889Z,19.92
2019-01-04T20:03:55.365Z,18.70
2019-01-04T20:07:58.873Z,18.77
2019-01-04T20:11:40.594Z,18.62
2019-01-04T20:15:16.534Z,16.30
2019-01-04T20:18:33.268Z,18.37
2019-01-04T20:21:48.983Z,18.27
2019-01-04T20:25:03.383Z,16.20
2019-01-04T20:28:13.539Z,17.40
2019-01-04T20:31:38.151Z,20.00
2019-01-04T20:34:48.012Z,16.67
2019-01-04T20:37:57.844Z,17.23
2019-01-04T20:41:05.857Z,15.17
2019-01-04T20:44:20.349Z,17.32
2019-01-04T20:47:43.418Z,14.23
2019-01-04T20:51:05.834Z,18.47
2019-01-04T20:54:29.145Z,16.70
2019-01-04T20:57:36.339Z,17.83
2019-01-04T21:00:54.131Z,17.67
2019-01-04T21:04:14.101Z,15.43
2019-01-04T21:07:20.642Z,14.93
2019-01-04T21:10:46.281Z,15.27
2019-01-04T21:13:55.230Z,16.63
2019-01-04T21:17:12.508Z,15.80
2019-01-04T21:20:23.906Z,18.80
2019-01-04T21:23:45.725Z,15.93
2019-01-04T21:26:54.662Z,14.97
2019-01-04T21:30:17.848Z,16.40
2019-01-04T21:33:26.573Z,16.83
2019-01-04T21:36:52.265Z,17.13
2019-01-04T21:39:59.818Z,20.50
2019-01-04T21:43:10.466Z,19.87
2019-01-04T21:46:35.644Z,16.90
2019-01-04T21:49:56.523Z,13.60
2019-01-04T21:53:04.254Z,13.40
2019-01-04T21:56:30.489Z,13.63
2019-01-04T21:59:41.056Z,13.83
2019-01-04T22:02:40.702Z,14.27
2019-01-04T22:05:54.336Z,12.77
2019-01-04T22:09:21.420Z,16.15
2019-01-04T22:12:39.463Z,18.03
2019-01-04T22:15:52.853Z,14.03
2019-01-04T22:19:05.197Z,15.00
2019-01-04T22:22:18.110Z,15.58
2019-01-04T22:25:27.828Z,14.43
2019-01-04T22:28:36.508Z,14.97
2019-01-04T22:31:51.906Z,12.43
2019-01-04T22:34:59.341Z,11.97
2019-01-04T22:38:25.140Z,10.13
2019-01-04T22:42:01.062Z,11.50
2019-01-04T22:45:10.104Z,13.73
2019-01-04T22:48:23.273Z,11.13
2019-01-04T22:51:42.583Z,14.27
2019-01-04T22:54:53.139Z,12.97
2019-01-04T22:58:13.748Z,12.97
2019-01-04T23:01:28.345Z,14.13
2019-01-04T23:04:37.537Z,13.30
2019-01-04T23:07:54.458Z,13.30
2019-01-04T23:11:04.612Z,13.83
2019-01-04T23:14:13.260Z,12.50
2019-01-04T23:17:22.543Z,13.03
2019-01-04T23:20:48.606Z,11.33
2019-01-04T23:23:57.614Z,11.53
2019-01-04T23:27:07.497Z,12.07
2019-01-04T23:30:17.355Z,13.60
2019-01-04T23:33:32.424Z,12.73
2019-01-04T23:36:52.401Z,14.18
2019-01-04T23:40:19.657Z,12.55
2019-01-04T23:43:27.568Z,11.63
2019-01-04T23:46:35.543Z,11.70
2019-01-04T23:49:47.555Z,11.03
2019-01-04T23:52:58.237Z,13.18
2019-01-04T23:56:18.797Z,11.93
2019-01-04T23:59:27.957Z,12.97
